Time;durP1;ratioP1;P1;durP2;ratioP2;P2;SDS_P1;SDS_P2;PMS_P1;PMS_P2;Temp;Humidity;BMP_temperature;BMP_pressure;BME280_temperature;BME280_humidity;BME280_pressure;Samples;Min_cycle;Max_cycle;Signal;HPM_P1;HPM_P2
2023/11/09 00:00:08;;;;;;;2.78;2.58;;;;;;;;;;10282116;28;20087;-54
2023/11/09 00:05:07;;;;;;;3.40;3.10;;;;;;;;;;10286014;28;20082;-53
2023/11/09 00:10:10;;;;;;;3.10;2.80;;;;;;;;;;10281386;28;20080;-52
2023/11/09 00:15:09;;;;;;;5.38;3.05;;;;;;;;;;10286088;28;20091;-55
2023/11/09 00:20:09;;;;;;;3.13;2.85;;;;;;;;;;10280848;28;20076;-55
2023/11/09 00:25:11;;;;;;;3.30;3.00;;;;;;;;;;10280624;28;20101;-55
2023/11/09 00:30:11;;;;;;;4.20;3.17;;;;;;;;;;10296273;28;20107;-53
2023/11/09 00:35:09;;;;;;;3.22;2.92;;;;;;;;;;10297058;28;20498;-53
2023/11/09 00:40:10;;;;;;;3.38;3.08;;;;;;;;;;10296396;28;20048;-52
2023/11/09 00:45:11;;;;;;;3.53;3.22;;;;;;;;;;10280294;28;20545;-52
2023/11/09 00:50:10;;;;;;;3.40;3.08;;;;;;;;;;10285345;28;20068;-54
2023/11/09 00:55:10;;;;;;;3.75;3.13;;;;;;;;;;10278693;28;20091;-53
2023/11/09 01:00:09;;;;;;;5.80;3.42;;;;;;;;;;10295937;28;20072;-55
2023/11/09 01:05:10;;;;;;;6.88;3.42;;;;;;;;;;10279651;28;20083;-54
2023/11/09 01:10:09;;;;;;;3.85;3.45;;;;;;;;;;10278170;28;20052;-54
2023/11/09 01:15:08;;;;;;;3.97;3.38;;;;;;;;;;10279013;28;20088;-54
2023/11/09 01:20:07;;;;;;;5.28;2.90;;;;;;;;;;10294968;28;20524;-54
2023/11/09 01:25:07;;;;;;;3.13;2.88;;;;;;;;;;10293876;28;20076;-50
2023/11/09 01:30:05;;;;;;;4.05;3.20;;;;;;;;;;10295565;28;20072;-52
2023/11/09 01:35:05;;;;;;;4.45;3.65;;;;;;;;;;10295115;28;20090;-56
2023/11/09 01:40:04;;;;;;;6.30;3.25;;;;;;;;;;10294072;28;20545;-55
2023/11/09 01:45:04;;;;;;;3.45;3.15;;;;;;;;;;10294613;28;20064;-51
2023/11/09 01:50:03;;;;;;;3.70;3.38;;;;;;;;;;10294404;28;20261;-56
2023/11/09 01:55:01;;;;;;;3.30;3.00;;;;;;;;;;10301181;28;20080;-51
2023/11/09 02:00:00;;;;;;;3.50;3.20;;;;;;;;;;10301343;28;20592;-51
2023/11/09 02:05:01;;;;;;;3.88;3.58;;;;;;;;;;10301134;28;20045;-54
2023/11/09 02:09:59;;;;;;;4.00;3.60;;;;;;;;;;10293957;28;20084;-51
2023/11/09 02:14:57;;;;;;;3.53;3.17;;;;;;;;;;10294137;28;20162;-55
2023/11/09 02:19:56;;;;;;;4.03;3.67;;;;;;;;;;10294386;28;20085;-51
2023/11/09 02:24:56;;;;;;;10.45;4.18;;;;;;;;;;10301330;28;20045;-50
2023/11/09 02:29:54;;;;;;;5.15;4.60;;;;;;;;;;10275492;28;20041;-55
2023/11/09 02:34:53;;;;;;;6.25;4.57;;;;;;;;;;10279806;28;20076;-53
2023/11/09 02:39:52;;;;;;;5.20;3.90;;;;;;;;;;10285167;28;20076;-48
2023/11/09 02:44:52;;;;;;;4.63;4.07;;;;;;;;;;10307581;28;20048;-50
2023/11/09 02:49:50;;;;;;;3.80;3.50;;;;;;;;;;10300979;28;20064;-53
2023/11/09 02:54:48;;;;;;;6.65;4.53;;;;;;;;;;10300900;28;20078;-51
2023/11/09 02:59:46;;;;;;;3.70;3.17;;;;;;;;;;10307741;28;20040;-55
2023/11/09 03:04:46;;;;;;;3.70;3.40;;;;;;;;;;10300686;28;20084;-53
2023/11/09 03:09:45;;;;;;;3.58;3.28;;;;;;;;;;10300574;28;20522;-56
2023/11/09 03:14:44;;;;;;;4.03;3.50;;;;;;;;;;10300264;28;20088;-55
2023/11/09 03:19:43;;;;;;;3.67;3.38;;;;;;;;;;10300182;28;20089;-55
2023/11/09 03:24:42;;;;;;;6.88;5.55;;;;;;;;;;10299741;28;20526;-54
2023/11/09 03:29:41;;;;;;;5.47;4.50;;;;;;;;;;10306628;28;20077;-55
2023/11/09 03:34:39;;;;;;;5.20;4.70;;;;;;;;;;10305732;28;20080;-54
2023/11/09 03:39:37;;;;;;;3.67;3.38;;;;;;;;;;10284417;28;20059;-53
2023/11/09 03:44:38;;;;;;;10.30;9.32;;;;;;;;;;10297011;28;20068;-50
2023/11/09 03:49:39;;;;;;;5.18;4.60;;;;;;;;;;10298144;28;20044;-56
2023/11/09 03:54:37;;;;;;;11.35;9.98;;;;;;;;;;10283731;28;20080;-51
2023/11/09 03:59:37;;;;;;;5.22;4.35;;;;;;;;;;10298867;28;20072;-54
2023/11/09 04:04:35;;;;;;;4.97;4.47;;;;;;;;;;10297410;28;20073;-54
2023/11/09 04:09:34;;;;;;;3.55;3.15;;;;;;;;;;10297641;28;20084;-56
2023/11/09 04:14:32;;;;;;;4.38;3.15;;;;;;;;;;10297015;28;20092;-52
2023/11/09 04:19:32;;;;;;;6.72;3.78;;;;;;;;;;10296380;28;20532;-56
2023/11/09 04:24:30;;;;;;;3.13;2.83;;;;;;;;;;10297148;28;20072;-57
2023/11/09 04:29:30;;;;;;;5.00;4.55;;;;;;;;;;10296778;28;20676;-57
2023/11/09 04:34:31;;;;;;;4.32;3.55;;;;;;;;;;10296446;28;20087;-51
2023/11/09 04:39:32;;;;;;;6.85;3.60;;;;;;;;;;10296158;28;20064;-54
2023/11/09 04:44:32;;;;;;;11.80;8.48;;;;;;;;;;10296053;28;20086;-55
2023/11/09 04:49:31;;;;;;;4.60;3.65;;;;;;;;;;10290989;28;20079;-53
2023/11/09 04:54:44;;;;;;;7.35;5.43;;;;;;;;;;10302147;28;20087;-53
2023/11/09 05:10:14;;;;;;;;;;;;;;;;;;10290995;28;20064;-52
2023/11/09 05:15:14;;;;;;;5.57;3.75;;;;;;;;;;10287571;28;19951;-55
2023/11/09 05:20:14;;;;;;;3.78;3.13;;;;;;;;;;10291481;28;20076;-56
2023/11/09 05:25:15;;;;;;;5.28;4.35;;;;;;;;;;10287307;28;20068;-53
2023/11/09 05:30:16;;;;;;;6.55;3.45;;;;;;;;;;10288508;28;20084;-56
2023/11/09 05:35:17;;;;;;;3.80;3.33;;;;;;;;;;10288249;28;20084;-56
2023/11/09 05:40:15;;;;;;;5.03;3.83;;;;;;;;;;10289293;28;20066;-56
2023/11/09 05:45:15;;;;;;;4.43;3.20;;;;;;;;;;10290082;28;20079;-54
2023/11/09 05:50:13;;;;;;;6.88;3.35;;;;;;;;;;10287643;28;20060;-56
2023/11/09 05:55:12;;;;;;;3.13;2.83;;;;;;;;;;10289982;28;20478;-56
2023/11/09 06:00:13;;;;;;;3.30;3.00;;;;;;;;;;10289368;28;20083;-56
2023/11/09 06:05:14;;;;;;;5.40;4.07;;;;;;;;;;10276748;28;20520;-57
2023/11/09 06:10:13;;;;;;;6.47;3.85;;;;;;;;;;10298354;28;20490;-58
2023/11/09 06:15:12;;;;;;;8.65;4.03;;;;;;;;;;10301656;28;20077;-55
2023/11/09 06:20:12;;;;;;;6.47;3.75;;;;;;;;;;10285998;28;20051;-51
2023/11/09 06:25:13;;;;;;;4.30;3.90;;;;;;;;;;10296869;28;20083;-55
2023/11/09 06:30:12;;;;;;;5.15;3.60;;;;;;;;;;10295951;28;20091;-47
2023/11/09 06:35:13;;;;;;;4.20;2.97;;;;;;;;;;10286696;28;20510;-55
2023/11/09 06:40:16;;;;;;;4.03;3.33;;;;;;;;;;10299069;28;20442;-53
2023/11/09 06:45:15;;;;;;;4.13;3.15;;;;;;;;;;10300723;28;20079;-53
2023/11/09 06:50:13;;;;;;;10.10;4.20;;;;;;;;;;10287624;28;20103;-48
2023/11/09 06:55:15;;;;;;;4.68;3.00;;;;;;;;;;10291108;28;20076;-53
2023/11/09 07:00:14;;;;;;;6.05;4.05;;;;;;;;;;10290607;28;20076;-53
2023/11/09 07:05:13;;;;;;;9.55;5.35;;;;;;;;;;10291421;28;20064;-49
2023/11/09 07:10:15;;;;;;;6.68;5.88;;;;;;;;;;10293378;28;20075;-50
2023/11/09 07:15:14;;;;;;;3.80;3.40;;;;;;;;;;10300329;28;20087;-51
2023/11/09 07:20:13;;;;;;;6.72;3.97;;;;;;;;;;10299203;28;20081;-49
2023/11/09 07:25:14;;;;;;;11.65;10.43;;;;;;;;;;10299962;28;20080;-48
2023/11/09 07:30:13;;;;;;;5.97;3.40;;;;;;;;;;10283673;28;20087;-51
2023/11/09 07:35:11;;;;;;;4.40;3.97;;;;;;;;;;10298268;28;20525;-51
2023/11/09 07:40:13;;;;;;;4.72;3.55;;;;;;;;;;10282120;28;20075;-52
2023/11/09 07:45:12;;;;;;;5.97;3.28;;;;;;;;;;10298607;28;20513;-53
2023/11/09 07:50:11;;;;;;;5.82;4.07;;;;;;;;;;10285685;28;20691;-54
2023/11/09 07:55:10;;;;;;;4.28;3.88;;;;;;;;;;10298039;28;20367;-53
2023/11/09 08:00:11;;;;;;;5.97;4.28;;;;;;;;;;10282160;28;20148;-53
2023/11/09 08:05:14;;;;;;;3.97;3.20;;;;;;;;;;10297467;28;20428;-54
2023/11/09 08:10:12;;;;;;;4.43;3.60;;;;;;;;;;10296233;28;20069;-54
2023/11/09 08:15:13;;;;;;;6.03;3.33;;;;;;;;;;10294957;28;20072;-53
2023/11/09 08:20:14;;;;;;;6.28;4.07;;;;;;;;;;10296903;28;20087;-51
2023/11/09 08:25:15;;;;;;;4.25;3.53;;;;;;;;;;10297122;28;20465;-54
2023/11/09 08:30:15;;;;;;;11.30;6.60;;;;;;;;;;10295665;28;20117;-53
2023/11/09 08:35:14;;;;;;;6.70;3.92;;;;;;;;;;10296300;28;20041;-52
2023/11/09 08:40:17;;;;;;;7.60;5.15;;;;;;;;;;10296210;28;20529;-54
2023/11/09 08:45:18;;;;;;;9.02;5.22;;;;;;;;;;10296296;28;20083;-56
2023/11/09 08:50:17;;;;;;;5.78;4.82;;;;;;;;;;10296134;28;20501;-54
2023/11/09 08:55:16;;;;;;;9.60;5.18;;;;;;;;;;10295851;28;20095;-55
2023/11/09 09:00:16;;;;;;;6.38;4.88;;;;;;;;;;10294897;28;20075;-53
2023/11/09 09:05:20;;;;;;;4.38;3.85;;;;;;;;;;10295093;28;20074;-55
2023/11/09 09:10:20;;;;;;;7.72;5.40;;;;;;;;;;10295147;28;20076;-57
2023/11/09 09:15:20;;;;;;;3.33;3.03;;;;;;;;;;10294939;28;20081;-56
2023/11/09 09:20:20;;;;;;;4.68;4.13;;;;;;;;;;10294273;28;20088;-54
2023/11/09 09:25:22;;;;;;;6.45;3.70;;;;;;;;;;10294675;28;20083;-51
2023/11/09 09:30:22;;;;;;;5.82;5.22;;;;;;;;;;10294454;28;20076;-54
2023/11/09 09:35:23;;;;;;;6.05;4.22;;;;;;;;;;10293977;28;20068;-52
2023/11/09 09:40:29;;;;;;;4.03;3.30;;;;;;;;;;10294922;28;20069;-54
2023/11/09 09:45:38;;;;;;;4.05;3.65;;;;;;;;;;10294847;28;20075;-57
2023/11/09 09:50:38;;;;;;;6.07;3.72;;;;;;;;;;10293846;28;20306;-56
2023/11/09 09:55:37;;;;;;;5.25;3.20;;;;;;;;;;10293905;28;20068;-55
2023/11/09 10:00:36;;;;;;;4.22;3.83;;;;;;;;;;10293914;28;20072;-55
2023/11/09 10:05:35;;;;;;;5.25;4.40;;;;;;;;;;10292731;28;20072;-48
2023/11/09 10:10:37;;;;;;;3.50;3.20;;;;;;;;;;10293521;28;20077;-56
2023/11/09 10:15:36;;;;;;;6.35;4.72;;;;;;;;;;10293328;28;20096;-56
2023/11/09 10:20:34;;;;;;;5.90;4.68;;;;;;;;;;10292605;28;20481;-56
2023/11/09 10:25:36;;;;;;;5.80;3.58;;;;;;;;;;10292947;28;20079;-58
2023/11/09 10:30:41;;;;;;;6.53;3.60;;;;;;;;;;10292655;28;20069;-57
2023/11/09 10:35:39;;;;;;;;;;;;;;;;;;10278999;28;20494;-56
2023/11/09 10:40:41;;;;;;;5.72;4.25;;;;;;;;;;10292526;28;19959;-58
2023/11/09 10:46:07;;;;;;;5.90;3.60;;;;;;;;;;10292276;28;20079;-56
2023/11/09 10:51:09;;;;;;;7.15;4.65;;;;;;;;;;10292935;28;20095;-57
2023/11/09 10:56:10;;;;;;;7.72;4.80;;;;;;;;;;10296553;28;20080;-55
2023/11/09 11:01:12;;;;;;;4.65;3.80;;;;;;;;;;10300371;28;20438;-55
2023/11/09 11:06:11;;;;;;;9.68;3.58;;;;;;;;;;10283559;28;20072;-56
2023/11/09 11:11:13;;;;;;;6.35;3.47;;;;;;;;;;10285618;28;20294;-55
2023/11/09 11:16:20;;;;;;;3.85;3.17;;;;;;;;;;10300135;28;20091;-56
2023/11/09 11:21:24;;;;;;;5.07;2.78;;;;;;;;;;10284316;28;20095;-51
2023/11/09 11:26:24;;;;;;;3.42;3.13;;;;;;;;;;10305875;28;20421;-55
2023/11/09 11:31:24;;;;;;;3.72;3.38;;;;;;;;;;10299232;28;20080;-56
2023/11/09 11:36:26;;;;;;;5.50;3.55;;;;;;;;;;10298402;28;20065;-56
2023/11/09 11:41:25;;;;;;;7.22;3.13;;;;;;;;;;10286372;28;20064;-58
2023/11/09 11:46:27;;;;;;;3.25;2.80;;;;;;;;;;10298865;28;20080;-52
2023/11/09 11:51:27;;;;;;;4.43;2.75;;;;;;;;;;10283817;28;20073;-57
2023/11/09 11:56:32;;;;;;;2.72;2.50;;;;;;;;;;10298321;28;20079;-53
2023/11/09 12:01:33;;;;;;;4.55;3.03;;;;;;;;;;10281975;28;20079;-55
2023/11/09 12:06:34;;;;;;;5.93;3.42;;;;;;;;;;10296358;28;20084;-55
2023/11/09 12:11:41;;;;;;;5.30;3.15;;;;;;;;;;10297354;28;20485;-54
2023/11/09 12:16:41;;;;;;;3.13;2.80;;;;;;;;;;10282462;28;20087;-55
2023/11/09 12:21:39;;;;;;;3.70;2.83;;;;;;;;;;10297445;28;20084;-53
2023/11/09 12:26:38;;;;;;;2.83;2.03;;;;;;;;;;10296676;28;20073;-54
2023/11/09 12:31:37;;;;;;;2.65;2.35;;;;;;;;;;10296045;28;20076;-55
2023/11/09 12:36:38;;;;;;;5.53;2.58;;;;;;;;;;10296701;28;20077;-54
2023/11/09 12:41:38;;;;;;;3.00;2.03;;;;;;;;;;10296120;28;20048;-55
2023/11/09 12:46:37;;;;;;;3.38;2.88;;;;;;;;;;10295317;28;20088;-56
2023/11/09 12:51:38;;;;;;;2.95;2.55;;;;;;;;;;10295542;28;20068;-55
2023/11/09 12:56:38;;;;;;;2.20;1.90;;;;;;;;;;10295457;28;20076;-54
2023/11/09 13:01:37;;;;;;;3.70;3.28;;;;;;;;;;10295458;28;20087;-53
2023/11/09 13:06:36;;;;;;;43.80;25.70;;;;;;;;;;10294580;28;20076;-56
2023/11/09 13:11:42;;;;;;;10.65;5.95;;;;;;;;;;10294846;28;20426;-55
2023/11/09 13:16:41;;;;;;;15.13;10.38;;;;;;;;;;10294715;28;20085;-54
2023/11/09 13:21:40;;;;;;;8.82;5.32;;;;;;;;;;10294541;28;20088;-54
2023/11/09 13:26:39;;;;;;;18.35;11.20;;;;;;;;;;10294573;28;20490;-55
2023/11/09 13:31:38;;;;;;;9.68;5.03;;;;;;;;;;10294620;28;20498;-56
2023/11/09 13:36:43;;;;;;;8.25;3.15;;;;;;;;;;10294078;28;20478;-55
2023/11/09 13:41:41;;;;;;;;;;;;;;;;;;10294868;28;20080;-56
2023/11/09 13:46:41;;;;;;;4.90;3.40;;;;;;;;;;10277909;28;19960;-56
2023/11/09 13:51:50;;;;;;;5.43;3.78;;;;;;;;;;10294043;28;20076;-54
2023/11/09 14:02:09;;;;;;;;;;;;;;;;;;10295015;28;20541;-55
2023/11/09 14:07:09;;;;;;;8.23;3.25;;;;;;;;;;10294325;28;20371;-57
2023/11/09 14:12:08;;;;;;;4.43;3.08;;;;;;;;;;10292892;28;20073;-56
2023/11/09 14:17:17;;;;;;;4.82;2.65;;;;;;;;;;10293293;28;20073;-56
2023/11/09 14:22:17;;;;;;;6.65;3.60;;;;;;;;;;10293963;28;20073;-57
2023/11/09 14:27:17;;;;;;;9.10;3.55;;;;;;;;;;10293965;28;20510;-54
2023/11/09 14:32:16;;;;;;;10.98;5.43;;;;;;;;;;10300133;28;20093;-55
2023/11/09 14:37:16;;;;;;;16.30;6.97;;;;;;;;;;10301426;28;20068;-56
2023/11/09 14:42:16;;;;;;;11.73;6.53;;;;;;;;;;10301427;28;20060;-55
2023/11/09 14:47:14;;;;;;;14.32;9.10;;;;;;;;;;10301164;28;20076;-54
2023/11/09 14:52:20;;;;;;;23.48;13.20;;;;;;;;;;10300789;28;20064;-57
2023/11/09 14:57:20;;;;;;;20.08;13.40;;;;;;;;;;10285422;28;20530;-55
2023/11/09 15:02:20;;;;;;;30.42;15.05;;;;;;;;;;10299600;28;20072;-54
2023/11/09 15:07:19;;;;;;;27.05;12.98;;;;;;;;;;10300323;28;20064;-55
2023/11/09 15:12:19;;;;;;;12.25;9.07;;;;;;;;;;10299688;28;20076;-55
2023/11/09 15:17:18;;;;;;;15.98;7.93;;;;;;;;;;10299091;28;20087;-55
2023/11/09 15:22:17;;;;;;;17.98;6.93;;;;;;;;;;10299510;28;20093;-56
2023/11/09 15:27:18;;;;;;;8.25;3.38;;;;;;;;;;10298992;28;20076;-55
2023/11/09 15:32:18;;;;;;;4.00;3.50;;;;;;;;;;10299685;28;20091;-55
2023/11/09 15:37:22;;;;;;;17.95;6.65;;;;;;;;;;10299013;28;20075;-56
2023/11/09 15:42:22;;;;;;;33.50;11.93;;;;;;;;;;10297677;28;20107;-56
2023/11/09 15:47:21;;;;;;;17.45;8.95;;;;;;;;;;10298385;28;20136;-57
2023/11/09 15:52:19;;;;;;;20.90;14.73;;;;;;;;;;10297612;28;20545;-56
2023/11/09 15:57:21;;;;;;;9.82;6.47;;;;;;;;;;10298109;28;20067;-55
2023/11/09 16:02:20;;;;;;;7.60;4.75;;;;;;;;;;10298136;28;20080;-57
2023/11/09 16:07:21;;;;;;;16.02;9.00;;;;;;;;;;10297171;28;20547;-57
2023/11/09 16:12:20;;;;;;;11.90;7.30;;;;;;;;;;10297592;28;20114;-56
2023/11/09 16:17:19;;;;;;;7.15;4.20;;;;;;;;;;10297266;28;20071;-56
2023/11/09 16:22:17;;;;;;;9.95;5.70;;;;;;;;;;10296224;28;20087;-52
2023/11/09 16:27:17;;;;;;;8.02;6.45;;;;;;;;;;10296867;28;20075;-54
2023/11/09 16:32:17;;;;;;;20.73;13.20;;;;;;;;;;10296663;28;20076;-53
2023/11/09 16:37:16;;;;;;;16.80;9.98;;;;;;;;;;10296602;28;20258;-53
2023/11/09 16:42:14;;;;;;;9.82;7.45;;;;;;;;;;10296439;28;20515;-51
2023/11/09 16:47:14;;;;;;;32.03;24.40;;;;;;;;;;10280926;28;20740;-53
2023/11/09 16:52:12;;;;;;;82.50;55.08;;;;;;;;;;10295604;28;20071;-54
2023/11/09 16:57:10;;;;;;;46.92;33.10;;;;;;;;;;10279090;28;20083;-57
2023/11/09 17:02:09;;;;;;;23.88;17.30;;;;;;;;;;10296569;28;20532;-56
2023/11/09 17:07:09;;;;;;;7.60;6.00;;;;;;;;;;10295179;28;20076;-57
2023/11/09 17:12:08;;;;;;;4.55;3.63;;;;;;;;;;10294658;28;20076;-57
2023/11/09 17:17:10;;;;;;;5.43;3.75;;;;;;;;;;10294454;28;20087;-54
2023/11/09 17:22:11;;;;;;;5.35;2.70;;;;;;;;;;10294752;28;20069;-57
2023/11/09 17:27:09;;;;;;;3.97;2.78;;;;;;;;;;10294111;28;20072;-56
2023/11/09 17:32:10;;;;;;;5.68;2.70;;;;;;;;;;10294749;28;20068;-57
2023/11/09 17:37:10;;;;;;;9.77;3.75;;;;;;;;;;10293333;28;20061;-56
2023/11/09 17:42:08;;;;;;;8.40;3.80;;;;;;;;;;10294714;28;20068;-58
2023/11/09 17:47:07;;;;;;;6.82;3.40;;;;;;;;;;10294600;28;20533;-57
2023/11/09 17:52:06;;;;;;;5.20;2.53;;;;;;;;;;10294384;28;20083;-57
2023/11/09 17:57:06;;;;;;;2.72;2.50;;;;;;;;;;10294391;28;20461;-56
2023/11/09 18:02:06;;;;;;;5.78;3.00;;;;;;;;;;10293839;28;20526;-55
2023/11/09 18:07:05;;;;;;;7.25;5.70;;;;;;;;;;10293681;28;20077;-57
2023/11/09 18:12:03;;;;;;;14.80;10.00;;;;;;;;;;10294108;28;20065;-56
2023/11/09 18:17:04;;;;;;;9.43;6.57;;;;;;;;;;10293191;28;20072;-55
2023/11/09 18:22:05;;;;;;;10.13;6.68;;;;;;;;;;10293941;28;20087;-57
2023/11/09 18:27:04;;;;;;;8.23;6.18;;;;;;;;;;10293963;28;20064;-56
2023/11/09 18:32:04;;;;;;;10.80;6.72;;;;;;;;;;10293072;28;20487;-53
2023/11/09 18:37:03;;;;;;;13.40;8.38;;;;;;;;;;10293548;28;20060;-57
2023/11/09 18:42:01;;;;;;;18.20;10.45;;;;;;;;;;10293452;28;20072;-56
2023/11/09 18:47:01;;;;;;;16.23;7.90;;;;;;;;;;10292948;28;20454;-57
2023/11/09 18:52:01;;;;;;;5.72;4.38;;;;;;;;;;10292936;28;20071;-56
2023/11/09 18:56:59;;;;;;;6.97;5.45;;;;;;;;;;10278799;28;20489;-55
2023/11/09 19:01:57;;;;;;;8.10;5.55;;;;;;;;;;10282521;28;20087;-57
2023/11/09 19:06:56;;;;;;;5.38;3.90;;;;;;;;;;10292224;28;20081;-56
2023/11/09 19:11:55;;;;;;;6.00;3.70;;;;;;;;;;10292222;28;20080;-55
2023/11/09 19:16:54;;;;;;;9.27;6.82;;;;;;;;;;10295926;28;20502;-55
2023/11/09 19:21:52;;;;;;;4.00;3.17;;;;;;;;;;10298662;28;20737;-56
2023/11/09 19:26:54;;;;;;;3.10;2.80;;;;;;;;;;10299381;28;20093;-55
2023/11/09 19:31:53;;;;;;;12.35;9.00;;;;;;;;;;10298847;28;20486;-56
2023/11/09 19:36:51;;;;;;;7.20;5.95;;;;;;;;;;10298290;28;20075;-55
2023/11/09 19:41:50;;;;;;;4.30;3.00;;;;;;;;;;10298742;28;20080;-54
2023/11/09 19:46:48;;;;;;;3.47;2.63;;;;;;;;;;10298369;28;20536;-55
2023/11/09 19:51:48;;;;;;;7.63;2.75;;;;;;;;;;10297972;28;20064;-56
2023/11/09 19:56:46;;;;;;;8.27;3.17;;;;;;;;;;10297966;28;20068;-57
2023/11/09 20:01:45;;;;;;;2.30;2.10;;;;;;;;;;10298204;28;20079;-56
2023/11/09 20:06:50;;;;;;;2.55;2.35;;;;;;;;;;10281922;28;20503;-57
2023/11/09 20:11:48;;;;;;;2.53;2.05;;;;;;;;;;10281953;28;20075;-55
2023/11/09 20:16:47;;;;;;;3.60;2.03;;;;;;;;;;10297620;28;20080;-57
2023/11/09 20:21:45;;;;;;;4.30;2.10;;;;;;;;;;10297714;28;20090;-54
2023/11/09 20:26:48;;;;;;;2.58;1.92;;;;;;;;;;10297213;28;20083;-56
2023/11/09 20:31:46;;;;;;;2.22;1.85;;;;;;;;;;10280618;28;20077;-56
2023/11/09 20:36:44;;;;;;;9.00;5.93;;;;;;;;;;10280364;28;20045;-51
2023/11/09 20:41:43;;;;;;;16.17;10.48;;;;;;;;;;10281710;28;20091;-55
2023/11/09 20:46:43;;;;;;;5.47;4.22;;;;;;;;;;10295632;28;20087;-57
2023/11/09 20:51:41;;;;;;;3.88;2.70;;;;;;;;;;10295652;28;20098;-54
2023/11/09 20:56:39;;;;;;;2.83;1.92;;;;;;;;;;10295992;28;20091;-56
2023/11/09 21:01:38;;;;;;;4.68;3.58;;;;;;;;;;10295175;28;20079;-54
2023/11/09 21:06:38;;;;;;;3.28;2.95;;;;;;;;;;10295255;28;20068;-56
2023/11/09 21:11:37;;;;;;;2.90;2.55;;;;;;;;;;10295112;28;20057;-57
2023/11/09 21:16:35;;;;;;;2.63;2.42;;;;;;;;;;10295002;28;20345;-53
2023/11/09 21:21:33;;;;;;;2.95;2.13;;;;;;;;;;10295011;28;20090;-56
2023/11/09 21:26:33;;;;;;;2.83;2.25;;;;;;;;;;10294874;28;20079;-59
2023/11/09 21:31:32;;;;;;;5.93;2.63;;;;;;;;;;10280796;28;20084;-54
2023/11/09 21:36:30;;;;;;;3.00;2.20;;;;;;;;;;10294330;28;20485;-55
2023/11/09 21:41:28;;;;;;;4.00;2.53;;;;;;;;;;10279611;28;20083;-57
2023/11/09 21:46:28;;;;;;;2.95;2.03;;;;;;;;;;10294385;28;20070;-52
2023/11/09 21:51:26;;;;;;;4.25;2.65;;;;;;;;;;10293910;28;20041;-54
2023/11/09 21:56:26;;;;;;;3.72;2.80;;;;;;;;;;10293647;28;20095;-56
2023/11/09 22:01:24;;;;;;;2.83;2.53;;;;;;;;;;10293533;28;20103;-52
2023/11/09 22:06:24;;;;;;;3.15;2.47;;;;;;;;;;10293024;28;20072;-54
2023/11/09 22:11:23;;;;;;;3.47;2.90;;;;;;;;;;10293541;28;20083;-57
2023/11/09 22:16:21;;;;;;;3.03;2.67;;;;;;;;;;10293855;28;20075;-55
2023/11/09 22:21:22;;;;;;;2.45;2.20;;;;;;;;;;10292915;28;20091;-53
2023/11/09 22:26:23;;;;;;;4.55;3.47;;;;;;;;;;10293056;28;20072;-55
2023/11/09 22:31:21;;;;;;;2.83;2.55;;;;;;;;;;10292808;28;20072;-54
2023/11/09 22:36:19;;;;;;;7.75;2.60;;;;;;;;;;10293177;28;20087;-54
2023/11/09 22:41:18;;;;;;;3.67;2.58;;;;;;;;;;10292825;28;20076;-56
2023/11/09 22:46:18;;;;;;;4.50;2.83;;;;;;;;;;10293440;28;20076;-53
2023/11/09 22:51:17;;;;;;;2.67;2.47;;;;;;;;;;10280396;28;20084;-53
2023/11/09 22:56:15;;;;;;;5.80;2.90;;;;;;;;;;10285854;28;20114;-55
2023/11/09 23:01:14;;;;;;;2.80;2.60;;;;;;;;;;10300291;28;20083;-57
2023/11/09 23:06:13;;;;;;;2.95;2.45;;;;;;;;;;10299482;28;20068;-56
2023/11/09 23:11:12;;;;;;;3.13;2.50;;;;;;;;;;10299426;28;20084;-58
2023/11/09 23:16:10;;;;;;;3.10;2.80;;;;;;;;;;10299706;28;20073;-54
2023/11/09 23:21:08;;;;;;;4.03;2.90;;;;;;;;;;10299344;28;20069;-54
2023/11/09 23:26:13;;;;;;;2.42;2.22;;;;;;;;;;10299022;28;20072;-54
2023/11/09 23:31:11;;;;;;;6.97;2.95;;;;;;;;;;10299555;28;20087;-54
2023/11/09 23:36:11;;;;;;;3.10;2.80;;;;;;;;;;10299188;28;20442;-54
2023/11/09 23:41:13;;;;;;;4.65;3.03;;;;;;;;;;10298668;28;20072;-55
2023/11/09 23:46:11;;;;;;;3.38;2.35;;;;;;;;;;10298298;28;20553;-55
2023/11/09 23:51:11;;;;;;;2.70;2.47;;;;;;;;;;10298820;28;20084;-54
2023/11/09 23:56:13;;;;;;;3.00;2.70;;;;;;;;;;10297946;28;20072;-54
